createdAt,value
2022-07-29T00:03:02.133Z,3.07
2022-07-29T00:11:28.958Z,2.70
2022-07-29T00:15:40.772Z,3.10
2022-07-29T00:37:05.760Z,3.17
2022-07-29T00:41:11.625Z,3.33
2022-07-29T00:45:16.433Z,2.90
2022-07-29T00:49:19.747Z,2.73
2022-07-29T00:57:46.367Z,3.43
2022-07-29T01:10:51.162Z,3.17
2022-07-29T01:15:00.841Z,3.67
2022-07-29T01:19:34.395Z,3.83
2022-07-29T01:24:09.364Z,3.17
2022-07-29T01:28:34.680Z,3.17
2022-07-29T01:32:44.434Z,3.37
2022-07-29T01:36:54.968Z,3.60
2022-07-29T01:41:16.811Z,3.27
2022-07-29T01:45:22.064Z,3.50
2022-07-29T01:49:31.140Z,3.33
2022-07-29T01:53:46.634Z,3.13
2022-07-29T01:57:51.513Z,2.87
2022-07-29T02:02:01.536Z,3.43
2022-07-29T02:06:09.994Z,3.97
2022-07-29T02:10:16.896Z,3.67
2022-07-29T02:14:23.824Z,3.30
2022-07-29T02:18:31.094Z,3.10
2022-07-29T02:22:39.359Z,3.57
2022-07-29T02:26:46.262Z,3.50
2022-07-29T02:30:51.689Z,3.70
2022-07-29T02:34:55.124Z,3.73
2022-07-29T02:39:02.255Z,3.63
2022-07-29T02:43:06.794Z,3.37
2022-07-29T02:47:23.771Z,2.70
2022-07-29T02:51:48.596Z,3.17
2022-07-29T02:56:06.958Z,3.60
2022-07-29T03:00:13.367Z,3.30
2022-07-29T03:04:20.880Z,3.03
2022-07-29T03:08:26.295Z,2.93
2022-07-29T03:12:30.727Z,3.20
2022-07-29T03:16:41.399Z,3.17
2022-07-29T03:20:47.765Z,3.40
2022-07-29T03:24:54.543Z,4.10
2022-07-29T03:28:57.909Z,4.67
2022-07-29T03:33:06.147Z,4.10
2022-07-29T03:37:22.656Z,4.77
2022-07-29T03:41:27.134Z,3.77
2022-07-29T03:45:31.781Z,3.10
2022-07-29T03:49:36.940Z,3.20
2022-07-29T03:53:42.056Z,2.93
2022-07-29T03:57:48.930Z,3.30
2022-07-29T04:01:54.455Z,2.83
2022-07-29T04:06:03.389Z,3.27
2022-07-29T04:10:06.313Z,3.37
2022-07-29T04:14:10.183Z,2.47
2022-07-29T04:18:13.144Z,3.43
2022-07-29T04:22:16.453Z,2.97
2022-07-29T04:26:21.559Z,2.87
2022-07-29T04:30:24.885Z,2.93
2022-07-29T04:34:28.945Z,2.53
2022-07-29T04:38:31.464Z,2.80
2022-07-29T04:42:35.198Z,2.70
2022-07-29T04:46:49.284Z,2.45
2022-07-29T04:50:51.406Z,2.92
2022-07-29T04:54:54.776Z,2.50
2022-07-29T04:58:57.997Z,2.70
2022-07-29T05:03:00.950Z,2.28
2022-07-29T05:07:04.327Z,2.95
2022-07-29T05:11:12.242Z,2.42
2022-07-29T05:15:16.171Z,2.08
2022-07-29T05:19:19.158Z,2.80
2022-07-29T05:23:21.301Z,3.13
2022-07-29T05:27:23.732Z,3.10
2022-07-29T05:31:26.070Z,2.13
2022-07-29T05:35:29.130Z,2.63
2022-07-29T05:39:46.968Z,2.58
2022-07-29T05:43:51.498Z,2.70
2022-07-29T05:47:53.611Z,2.90
2022-07-29T05:51:57.289Z,3.00
2022-07-29T05:55:59.284Z,3.07
2022-07-29T06:00:01.610Z,2.77
2022-07-29T06:04:03.948Z,2.50
2022-07-29T06:08:09.241Z,2.97
2022-07-29T06:12:12.453Z,2.97
2022-07-29T06:16:15.778Z,2.60
2022-07-29T06:20:32.987Z,3.40
2022-07-29T06:24:39.499Z,3.30
2022-07-29T06:28:44.456Z,3.80
2022-07-29T06:32:46.588Z,3.43
2022-07-29T06:36:50.153Z,4.13
2022-07-29T06:41:01.941Z,3.50
2022-07-29T06:45:09.070Z,3.43
2022-07-29T06:49:11.597Z,2.87
2022-07-29T06:53:14.317Z,3.13
2022-07-29T06:57:16.482Z,2.80
2022-07-29T07:01:18.924Z,3.17
2022-07-29T07:05:20.999Z,3.40
2022-07-29T07:09:23.349Z,3.50
2022-07-29T07:13:25.756Z,4.27
2022-07-29T07:17:28.651Z,3.67
2022-07-29T07:21:31.480Z,3.77
2022-07-29T07:25:33.976Z,3.90
2022-07-29T07:29:35.893Z,4.50
2022-07-29T07:33:37.785Z,4.50
2022-07-29T07:37:41.826Z,3.27
2022-07-29T07:41:44.136Z,4.57
2022-07-29T07:45:46.229Z,4.77
2022-07-29T07:49:49.111Z,4.23
2022-07-29T07:53:51.452Z,4.17
2022-07-29T07:57:55.512Z,4.10
2022-07-29T08:01:57.839Z,4.77
2022-07-29T08:05:59.919Z,5.40
2022-07-29T08:10:03.938Z,6.70
2022-07-29T08:14:06.072Z,6.20
2022-07-29T08:18:09.071Z,5.90
2022-07-29T08:22:11.221Z,5.30
2022-07-29T08:26:14.714Z,6.23
2022-07-29T08:30:16.904Z,5.53
2022-07-29T08:34:18.983Z,5.60
2022-07-29T08:38:28.681Z,5.53
2022-07-29T08:42:31.710Z,5.60
2022-07-29T08:46:34.654Z,5.07
2022-07-29T08:50:38.388Z,4.60
2022-07-29T08:54:44.354Z,4.60
2022-07-29T08:58:50.673Z,3.97
2022-07-29T09:03:00.333Z,5.13
2022-07-29T09:07:05.392Z,4.50
2022-07-29T09:11:08.995Z,5.03
2022-07-29T09:15:11.676Z,4.33
2022-07-29T09:19:36.098Z,5.10
2022-07-29T09:23:38.309Z,4.47
2022-07-29T09:27:40.495Z,4.70
2022-07-29T09:31:48.476Z,4.90
2022-07-29T09:36:02.053Z,5.50
2022-07-29T09:40:13.821Z,4.70
2022-07-29T09:44:17.011Z,5.87
2022-07-29T09:48:25.003Z,5.80
2022-07-29T09:52:30.195Z,5.47
2022-07-29T09:56:43.203Z,5.17
2022-07-29T10:00:47.461Z,5.17
2022-07-29T10:04:50.157Z,5.13
2022-07-29T10:08:53.602Z,5.63
2022-07-29T10:13:08.036Z,4.90
2022-07-29T10:17:12.401Z,5.57
2022-07-29T10:21:35.600Z,5.70
2022-07-29T10:25:36.962Z,5.50
2022-07-29T10:29:40.552Z,5.53
2022-07-29T10:34:27.340Z,5.33
2022-07-29T10:38:48.302Z,5.40
2022-07-29T10:42:51.474Z,5.17
2022-07-29T10:46:54.719Z,5.13
2022-07-29T10:51:01.238Z,4.77
2022-07-29T10:55:08.027Z,4.70
2022-07-29T10:59:20.205Z,5.47
2022-07-29T11:03:50.719Z,5.03
2022-07-29T11:08:26.273Z,4.80
2022-07-29T11:12:39.437Z,5.10
2022-07-29T11:17:07.155Z,5.70
2022-07-29T11:21:53.815Z,5.13
2022-07-29T11:26:13.672Z,4.50
2022-07-29T11:30:15.890Z,5.90
2022-07-29T11:34:34.853Z,5.43
2022-07-29T11:38:38.979Z,5.33
2022-07-29T11:42:46.672Z,5.47
2022-07-29T11:46:54.671Z,5.27
2022-07-29T11:50:58.741Z,5.13
2022-07-29T11:55:09.657Z,3.97
2022-07-29T11:59:15.312Z,4.37
2022-07-29T12:03:35.502Z,4.80
2022-07-29T12:07:51.178Z,4.40
2022-07-29T12:12:04.970Z,4.27
2022-07-29T12:16:07.951Z,4.60
2022-07-29T12:20:14.050Z,4.03
2022-07-29T12:24:17.247Z,4.57
2022-07-29T12:28:27.522Z,5.05
2022-07-29T12:32:42.732Z,5.10
2022-07-29T12:36:46.899Z,5.20
2022-07-29T12:40:50.586Z,5.20
2022-07-29T12:44:52.778Z,4.63
2022-07-29T12:48:56.324Z,5.10
2022-07-29T12:53:13.246Z,5.00
2022-07-29T12:57:20.132Z,4.88
2022-07-29T13:01:23.512Z,5.17
2022-07-29T13:05:49.332Z,4.70
2022-07-29T13:09:52.222Z,5.07
2022-07-29T13:14:06.557Z,5.07
2022-07-29T13:18:34.606Z,4.38
2022-07-29T13:22:37.215Z,5.20
2022-07-29T13:26:42.233Z,5.60
2022-07-29T13:30:47.826Z,5.43
2022-07-29T13:34:55.821Z,4.83
2022-07-29T13:38:58.777Z,5.50
2022-07-29T13:43:01.250Z,5.13
2022-07-29T13:47:08.247Z,5.05
2022-07-29T13:51:12.398Z,4.68
2022-07-29T13:55:15.720Z,4.20
2022-07-29T13:59:19.934Z,4.38
2022-07-29T14:03:22.476Z,4.00
2022-07-29T14:07:24.799Z,4.47
2022-07-29T14:11:27.016Z,3.50
2022-07-29T14:15:32.800Z,4.33
2022-07-29T14:19:39.588Z,3.70
2022-07-29T14:23:42.502Z,4.00
2022-07-29T14:27:46.801Z,4.27
2022-07-29T14:31:49.401Z,4.93
2022-07-29T14:35:52.286Z,4.80
2022-07-29T14:39:57.768Z,4.63
2022-07-29T14:44:03.089Z,5.40
2022-07-29T14:48:06.909Z,4.77
2022-07-29T14:52:15.402Z,4.90
2022-07-29T14:56:36.591Z,4.20
2022-07-29T15:00:39.544Z,5.17
2022-07-29T15:04:44.433Z,6.00
2022-07-29T15:08:47.110Z,4.67
2022-07-29T15:12:50.020Z,4.90
2022-07-29T15:21:14.282Z,5.80
2022-07-29T15:25:17.518Z,5.43
2022-07-29T15:29:28.525Z,6.43
2022-07-29T15:33:32.152Z,5.90
2022-07-29T15:37:49.073Z,4.70
2022-07-29T15:41:54.685Z,4.80
2022-07-29T15:46:15.942Z,4.83
2022-07-29T15:50:19.004Z,5.53
2022-07-29T15:54:21.259Z,4.60
2022-07-29T15:58:24.171Z,4.33
2022-07-29T16:02:27.733Z,4.90
2022-07-29T16:06:29.992Z,5.00
2022-07-29T16:10:32.487Z,4.57
2022-07-29T16:14:35.890Z,5.27
2022-07-29T16:18:39.920Z,4.30
2022-07-29T16:22:42.092Z,4.13
2022-07-29T16:26:44.345Z,4.90
2022-07-29T16:30:46.283Z,4.73
2022-07-29T16:34:48.963Z,4.20
2022-07-29T16:38:51.088Z,3.90
2022-07-29T16:42:53.339Z,3.70
2022-07-29T16:46:58.751Z,3.50
2022-07-29T16:51:02.493Z,3.63
2022-07-29T16:55:05.470Z,3.80
2022-07-29T16:59:09.223Z,4.13
2022-07-29T17:03:12.791Z,3.77
2022-07-29T17:07:17.099Z,3.60
2022-07-29T17:11:20.119Z,3.83
2022-07-29T17:15:22.047Z,3.83
2022-07-29T17:19:25.214Z,3.13
2022-07-29T17:23:28.196Z,3.83
2022-07-29T17:27:31.594Z,3.30
2022-07-29T17:31:34.109Z,3.17
2022-07-29T17:35:55.531Z,3.77
2022-07-29T17:40:00.293Z,3.43
2022-07-29T17:44:06.797Z,3.93
2022-07-29T17:48:09.195Z,3.80
2022-07-29T17:52:18.551Z,3.20
2022-07-29T17:56:21.248Z,3.50
2022-07-29T18:00:25.509Z,3.60
2022-07-29T18:04:28.913Z,3.60
2022-07-29T18:08:33.179Z,4.43
2022-07-29T18:12:35.397Z,3.60
2022-07-29T18:16:38.743Z,3.50
2022-07-29T18:20:44.857Z,2.93
2022-07-29T18:24:50.013Z,3.27
2022-07-29T18:28:53.678Z,3.83
2022-07-29T18:33:19.782Z,3.80
2022-07-29T18:37:18.193Z,3.57
2022-07-29T18:41:49.894Z,4.47
2022-07-29T18:45:52.722Z,3.77
2022-07-29T18:49:55.041Z,3.93
2022-07-29T18:53:57.503Z,3.50
2022-07-29T18:57:59.899Z,3.17
2022-07-29T19:02:03.290Z,3.30
2022-07-29T19:06:08.489Z,3.40
2022-07-29T19:10:13.652Z,3.60
2022-07-29T19:14:16.115Z,3.37
2022-07-29T19:18:18.765Z,3.97
2022-07-29T19:22:22.220Z,4.10
2022-07-29T19:26:24.392Z,3.10
2022-07-29T19:30:28.660Z,3.50
2022-07-29T19:34:32.393Z,3.77
2022-07-29T19:38:36.074Z,3.30
2022-07-29T19:42:38.352Z,3.17
2022-07-29T19:46:40.705Z,3.30
2022-07-29T19:50:45.736Z,3.27
2022-07-29T19:54:49.344Z,3.10
2022-07-29T19:58:51.453Z,2.80
2022-07-29T20:02:54.781Z,2.67
2022-07-29T20:07:01.587Z,3.00
2022-07-29T20:11:04.421Z,2.70
2022-07-29T20:15:08.882Z,2.30
2022-07-29T20:19:18.277Z,3.23
2022-07-29T20:23:22.438Z,2.97
2022-07-29T20:27:25.013Z,2.43
2022-07-29T20:31:30.990Z,2.93
2022-07-29T20:35:34.591Z,2.53
2022-07-29T20:39:39.475Z,2.37
2022-07-29T20:43:46.780Z,2.57
2022-07-29T20:47:52.722Z,2.50
2022-07-29T20:56:39.173Z,2.00
2022-07-29T21:00:41.537Z,2.33
2022-07-29T21:04:43.844Z,3.10
2022-07-29T21:08:46.201Z,2.73
2022-07-29T21:12:48.748Z,2.70
2022-07-29T21:16:50.878Z,2.93
2022-07-29T21:20:57.057Z,3.07
2022-07-29T21:24:59.847Z,2.60
2022-07-29T21:29:01.820Z,2.60
2022-07-29T21:33:06.083Z,3.43
2022-07-29T21:37:08.251Z,3.50
2022-07-29T21:41:12.768Z,3.27
2022-07-29T21:45:14.636Z,2.93
2022-07-29T21:49:16.819Z,3.27
2022-07-29T21:53:22.107Z,2.93
2022-07-29T21:57:26.681Z,3.77
2022-07-29T22:01:29.074Z,4.27
2022-07-29T22:05:41.113Z,3.73
2022-07-29T22:09:43.408Z,3.73
2022-07-29T22:13:45.492Z,4.10
2022-07-29T22:17:47.862Z,3.50
2022-07-29T22:21:50.036Z,4.90
2022-07-29T22:25:54.280Z,4.73
2022-07-29T22:29:56.585Z,4.50
2022-07-29T22:33:58.819Z,4.07
2022-07-29T22:38:00.763Z,4.80
2022-07-29T22:42:02.875Z,4.43
2022-07-29T22:46:05.100Z,5.33
2022-07-29T22:50:07.542Z,5.00
2022-07-29T22:54:09.563Z,4.83
2022-07-29T22:58:11.689Z,5.00
2022-07-29T23:02:14.076Z,5.10
2022-07-29T23:06:16.093Z,5.27
2022-07-29T23:10:18.084Z,5.37
2022-07-29T23:14:20.219Z,6.17
2022-07-29T23:18:22.387Z,5.20
2022-07-29T23:22:24.308Z,5.10
2022-07-29T23:26:26.518Z,4.80
2022-07-29T23:30:28.995Z,4.33
2022-07-29T23:34:31.432Z,3.77
2022-07-29T23:38:33.563Z,3.13
2022-07-29T23:42:35.652Z,3.17
2022-07-29T23:46:37.697Z,2.03
2022-07-29T23:50:39.794Z,1.93
2022-07-29T23:54:42.207Z,1.43
2022-07-29T23:58:44.245Z,1.47
